Archival Weather

Sulphur Springs Muni

Sulphur Springs, Texas (KSLR)

Report from: Thursday, September 21, 2023 4:52 AM CDT
Current time: Saturday, February 24, 2024 10:37 AM CST

Current weather – Weather history – Daily summaries
Weather forecast

Temperature21.0°C (69.8°F)
Dew point19.0°C (66.2°F)
Winds 3 kts (1.5 m/s, 3.5 mph) East-Northeast (70°)
Visibility10 mi. (16.1 km)
Clouds Sky clear
Altimeter29.98 in.Hg (1015 mB)
Relative humidity88 %
Density altitude932 ft. (284 m)
Remarks Fully automated report
Automated weather observing station with precipitation discriminator
Flight conditions Visual Meteorological Conditions
Raw dataKSLR 210952Z AUTO 07003KT 10SM CLR 21/19 A2998 RMK AO2
An error has occurred. This application may no longer respond until reloaded. Reload 🗙